Terminal Aerodrome Forecast
Issued by NWS Sterling, VA

Current Version | Previous Version | Graphics & Text | Print | Product List | Glossary On
Versions: 1 2 3 4 5 6 7 8 9 10 11 12 13 14 15 16 17 18 19 20 21 22 23 24 25 26 27 28
733
FTUS41 KLWX 182059 AAA
TAFDCA
TAF AMD
KDCA 182059Z 1821/1918 18011KT P6SM VCTS SCT060CB BKN090
      TEMPO 1822/1824 VRB20G35KT 1SM +TSRA BKN035CB
     FM190100 25006KT P6SM SCT060 BKN090
     FM190600 26004KT P6SM FEW060 SCT120
     FM191300 32006KT P6SM FEW250=

USA.gov is the U.S. government's official web portal to all federal, state and local government web resources and services.